createdAt,value
2019-05-18T00:00:23.433Z,0.00
2019-05-18T00:01:23.437Z,0.00
2019-05-18T00:02:23.384Z,0.00
2019-05-18T00:03:23.406Z,0.00
2019-05-18T00:04:23.359Z,0.00
2019-05-18T00:05:23.339Z,0.00
2019-05-18T00:06:23.329Z,0.00
2019-05-18T00:07:23.304Z,0.00
2019-05-18T00:08:23.294Z,0.00
2019-05-18T00:09:23.279Z,0.00
2019-05-18T00:10:23.259Z,0.00
2019-05-18T00:11:23.246Z,0.00
2019-05-18T00:12:23.223Z,0.00
2019-05-18T00:13:23.226Z,0.00
2019-05-18T00:14:23.223Z,0.00
2019-05-18T00:15:23.179Z,0.00
2019-05-18T00:16:23.187Z,0.00
2019-05-18T00:17:25.196Z,0.00
2019-05-18T00:18:23.174Z,0.00
2019-05-18T00:19:23.128Z,0.00
2019-05-18T00:20:23.099Z,0.00
2019-05-18T00:21:23.079Z,0.00
2019-05-18T00:22:23.184Z,0.00
2019-05-18T00:23:23.215Z,0.00
2019-05-18T00:24:23.126Z,0.00
2019-05-18T00:25:23.336Z,0.00
2019-05-18T00:26:23.124Z,0.00
2019-05-18T00:27:23.235Z,0.00
2019-05-18T00:28:23.089Z,0.00
2019-05-18T00:29:23.115Z,0.00
2019-05-18T00:30:23.038Z,0.00
2019-05-18T00:31:22.970Z,0.00
2019-05-18T00:32:22.982Z,0.00
2019-05-18T00:33:22.906Z,0.00
2019-05-18T00:34:22.911Z,0.00
2019-05-18T00:35:22.889Z,0.00
2019-05-18T00:36:32.504Z,0.00
2019-05-18T00:38:17.226Z,0.00
2019-05-18T00:39:17.252Z,0.00
2019-05-18T00:41:11.662Z,0.00
2019-05-18T00:42:11.595Z,0.00
2019-05-18T00:44:17.035Z,0.00
2019-05-18T00:45:17.063Z,0.00
2019-05-18T00:47:22.531Z,0.00
2019-05-18T00:48:22.406Z,0.00
2019-05-18T00:50:28.847Z,0.00
2019-05-18T00:51:28.849Z,0.00
2019-05-18T00:53:34.333Z,0.00
2019-05-18T00:54:34.248Z,0.00
2019-05-18T00:55:34.222Z,0.00
2019-05-18T00:56:34.222Z,0.00
2019-05-18T00:57:34.200Z,0.00
2019-05-18T00:58:34.190Z,0.00
2019-05-18T00:59:34.178Z,0.00
2019-05-18T01:00:34.154Z,0.00
2019-05-18T01:01:34.168Z,0.00
2019-05-18T01:02:34.131Z,0.00
2019-05-18T01:03:34.117Z,0.00
2019-05-18T01:04:34.113Z,0.00
2019-05-18T01:05:34.083Z,0.00
2019-05-18T01:06:34.046Z,0.00
2019-05-18T01:07:34.063Z,0.00
2019-05-18T01:08:34.006Z,0.00
2019-05-18T01:09:33.994Z,0.00
2019-05-18T01:10:33.972Z,0.00
2019-05-18T01:11:33.966Z,0.00
2019-05-18T01:12:33.939Z,0.00
2019-05-18T01:13:33.922Z,0.00
2019-05-18T01:14:33.915Z,0.00
2019-05-18T01:15:33.890Z,0.00
2019-05-18T01:16:33.881Z,0.00
2019-05-18T01:17:33.879Z,0.00
2019-05-18T01:18:33.843Z,0.00
2019-05-18T01:19:33.833Z,0.00
2019-05-18T01:20:33.908Z,0.00
2019-05-18T01:21:33.821Z,0.00
2019-05-18T01:22:33.769Z,0.00
2019-05-18T01:23:33.758Z,0.00
2019-05-18T01:24:33.740Z,0.00
2019-05-18T01:25:33.721Z,0.00
2019-05-18T01:26:33.703Z,0.00
2019-05-18T01:27:33.701Z,0.00
2019-05-18T01:28:33.683Z,0.00
2019-05-18T01:29:33.663Z,0.00
2019-05-18T01:30:33.672Z,0.00
2019-05-18T01:31:33.620Z,0.00
2019-05-18T01:32:34.540Z,0.00
2019-05-18T01:33:33.586Z,0.00
2019-05-18T01:34:33.585Z,0.00
2019-05-18T01:35:33.585Z,0.00
2019-05-18T01:36:33.557Z,0.00
2019-05-18T01:37:33.694Z,0.00
2019-05-18T01:38:33.682Z,0.00
2019-05-18T01:39:33.799Z,0.00
2019-05-18T01:40:33.876Z,0.00
2019-05-18T01:41:33.700Z,0.00
2019-05-18T01:42:36.467Z,0.00
2019-05-18T01:43:35.516Z,0.00
2019-05-18T01:44:34.420Z,0.00
2019-05-18T01:45:34.632Z,0.00
2019-05-18T01:46:33.710Z,0.00
2019-05-18T01:47:34.107Z,0.00
2019-05-18T01:48:35.646Z,0.00
2019-05-18T01:49:33.445Z,0.00
2019-05-18T01:50:34.123Z,0.00
2019-05-18T01:51:33.287Z,0.00
2019-05-18T01:52:33.268Z,0.00
2019-05-18T01:53:33.272Z,0.00
2019-05-18T01:54:33.235Z,0.00
2019-05-18T01:55:33.221Z,0.00
2019-05-18T01:56:33.202Z,0.00
2019-05-18T01:57:33.202Z,0.00
2019-05-18T01:58:33.192Z,0.00
2019-05-18T01:59:33.166Z,0.00
2019-05-18T02:00:33.135Z,0.00
2019-05-18T02:01:33.135Z,0.00
2019-05-18T02:02:33.114Z,0.00
2019-05-18T02:03:33.129Z,0.00
2019-05-18T02:04:33.071Z,0.00
2019-05-18T02:05:33.066Z,0.00
2019-05-18T02:06:33.073Z,0.00
2019-05-18T02:07:33.027Z,0.00
2019-05-18T02:08:33.016Z,0.00
2019-05-18T02:09:33.010Z,0.00
2019-05-18T02:10:33.094Z,0.00
2019-05-18T02:11:33.236Z,0.00
2019-05-18T02:12:33.388Z,0.00
2019-05-18T02:13:33.213Z,0.00
2019-05-18T02:14:33.367Z,0.00
2019-05-18T02:15:33.211Z,0.00
2019-05-18T02:16:33.154Z,0.00
2019-05-18T02:17:33.048Z,0.00
2019-05-18T02:18:33.061Z,0.00
2019-05-18T02:19:33.270Z,0.00
2019-05-18T02:20:33.080Z,0.00
2019-05-18T02:21:33.148Z,0.00
2019-05-18T02:22:33.153Z,0.00
2019-05-18T02:23:33.138Z,0.00
2019-05-18T02:24:33.239Z,0.00
2019-05-18T02:25:33.299Z,0.00
2019-05-18T02:26:33.091Z,0.00
2019-05-18T02:27:33.039Z,0.00
2019-05-18T02:28:33.479Z,0.00
2019-05-18T02:29:33.052Z,0.00
2019-05-18T02:30:32.943Z,0.00
2019-05-18T02:31:32.779Z,0.00
2019-05-18T02:32:32.758Z,0.00
2019-05-18T02:33:32.695Z,0.00
2019-05-18T02:34:32.607Z,0.00
2019-05-18T02:35:32.591Z,0.00
2019-05-18T02:36:32.640Z,0.00
2019-05-18T02:37:32.905Z,0.00
2019-05-18T02:38:32.521Z,0.00
2019-05-18T02:39:32.526Z,0.00
2019-05-18T02:40:32.493Z,0.00
2019-05-18T02:41:32.513Z,0.00
2019-05-18T02:42:32.515Z,0.00
2019-05-18T02:43:32.450Z,0.00
2019-05-18T02:44:32.454Z,0.00
2019-05-18T02:45:32.454Z,0.00
2019-05-18T02:46:32.400Z,0.00
2019-05-18T02:47:32.418Z,0.00
2019-05-18T02:48:47.783Z,0.00
2019-05-18T02:49:32.391Z,0.00
2019-05-18T02:50:32.541Z,0.00
2019-05-18T02:51:32.376Z,0.00
2019-05-18T02:52:32.310Z,0.00
2019-05-18T02:53:32.284Z,0.00
2019-05-18T02:54:32.390Z,0.00
2019-05-18T02:55:32.422Z,0.00
2019-05-18T02:56:32.393Z,0.00
2019-05-18T02:57:32.519Z,0.00
2019-05-18T02:58:32.375Z,0.00
2019-05-18T02:59:32.523Z,0.00
2019-05-18T03:00:32.358Z,0.00
2019-05-18T03:01:32.159Z,0.00
2019-05-18T03:02:32.203Z,0.00
2019-05-18T03:03:32.412Z,0.00
2019-05-18T03:04:32.280Z,0.00
2019-05-18T03:05:32.269Z,0.00
2019-05-18T03:06:32.241Z,0.00
2019-05-18T03:07:32.272Z,0.00
2019-05-18T03:08:32.375Z,0.00
2019-05-18T03:09:32.702Z,0.00
2019-05-18T03:10:32.215Z,0.00
2019-05-18T03:11:32.424Z,0.00
2019-05-18T03:12:32.405Z,0.00
2019-05-18T03:13:32.412Z,0.00
2019-05-18T03:14:32.132Z,4.00
2019-05-18T03:15:33.081Z,0.00
2019-05-18T03:16:32.343Z,0.00
2019-05-18T03:17:32.122Z,4.00
2019-05-18T03:18:32.178Z,4.00
2019-05-18T03:19:31.862Z,0.00
2019-05-18T03:20:31.846Z,4.00
2019-05-18T03:21:31.827Z,4.00
2019-05-18T03:22:31.801Z,4.00
2019-05-18T03:23:31.785Z,4.00
2019-05-18T03:24:31.773Z,4.00
2019-05-18T03:25:31.758Z,4.00
2019-05-18T03:26:31.750Z,4.00
2019-05-18T03:27:31.713Z,8.00
2019-05-18T03:28:31.694Z,8.00
2019-05-18T03:29:31.703Z,8.00
2019-05-18T03:30:31.669Z,8.00
2019-05-18T03:31:31.649Z,8.00
2019-05-18T03:32:31.630Z,8.00
2019-05-18T03:33:31.636Z,12.00
2019-05-18T03:34:31.611Z,12.00
2019-05-18T03:35:31.621Z,12.00
2019-05-18T03:36:31.602Z,12.00
2019-05-18T03:37:31.548Z,16.00
2019-05-18T03:38:31.554Z,16.00
2019-05-18T03:39:31.516Z,16.00
2019-05-18T03:40:31.511Z,20.00
2019-05-18T03:41:31.484Z,20.00
2019-05-18T03:42:31.499Z,24.00
2019-05-18T03:43:31.451Z,24.00
2019-05-18T03:44:31.464Z,28.00
2019-05-18T03:45:31.451Z,28.00
2019-05-18T03:46:31.406Z,28.00
2019-05-18T03:47:31.396Z,32.00
2019-05-18T03:48:31.398Z,36.00
2019-05-18T03:49:31.356Z,36.00
2019-05-18T03:50:31.481Z,40.00
2019-05-18T03:53:21.002Z,44.00
2019-05-18T03:54:20.923Z,48.00
2019-05-18T03:55:20.843Z,48.00
2019-05-18T03:56:20.905Z,52.00
2019-05-18T03:57:20.835Z,56.00
2019-05-18T03:58:20.715Z,60.00
2019-05-18T03:59:20.738Z,60.00
2019-05-18T04:00:20.691Z,64.00
2019-05-18T04:01:20.734Z,68.00
2019-05-18T04:02:20.650Z,72.00
2019-05-18T04:03:20.632Z,76.00
2019-05-18T04:04:20.574Z,80.00
2019-05-18T04:05:20.577Z,88.00
2019-05-18T04:06:20.582Z,88.00
2019-05-18T04:07:20.534Z,96.00
2019-05-18T04:08:20.541Z,104.00
2019-05-18T04:09:20.516Z,112.00
2019-05-18T04:10:20.482Z,120.00
2019-05-18T04:11:20.463Z,128.00
2019-05-18T04:12:20.465Z,136.00
2019-05-18T04:13:20.431Z,144.00
2019-05-18T04:14:20.417Z,148.00
2019-05-18T04:15:20.424Z,156.00
2019-05-18T04:16:20.422Z,156.00
2019-05-18T04:17:20.412Z,164.00
2019-05-18T04:18:20.352Z,164.00
2019-05-18T04:19:20.372Z,172.00
2019-05-18T04:20:20.354Z,176.00
2019-05-18T04:21:20.340Z,184.00
2019-05-18T04:22:20.303Z,188.00
2019-05-18T04:23:20.303Z,196.00
2019-05-18T04:24:20.257Z,204.00
2019-05-18T04:25:20.243Z,212.00
2019-05-18T04:26:22.297Z,212.00
2019-05-18T04:27:20.211Z,216.00
2019-05-18T04:28:20.187Z,224.00
2019-05-18T04:29:20.193Z,236.00
2019-05-18T04:30:20.166Z,240.00
2019-05-18T04:31:20.186Z,240.00
2019-05-18T04:32:20.136Z,236.00
2019-05-18T04:33:20.133Z,232.00
2019-05-18T04:34:20.121Z,220.00
2019-05-18T04:35:20.244Z,216.00
2019-05-18T04:36:20.079Z,216.00
2019-05-18T04:37:20.076Z,220.00
2019-05-18T04:38:20.089Z,220.00
2019-05-18T04:39:20.023Z,224.00
2019-05-18T04:40:20.002Z,224.00
2019-05-18T04:41:19.992Z,228.00
2019-05-18T04:42:20.009Z,228.00
2019-05-18T04:43:19.955Z,232.00
2019-05-18T04:44:19.980Z,236.00
2019-05-18T04:45:19.927Z,244.00
2019-05-18T04:46:19.912Z,248.00
2019-05-18T04:47:19.917Z,252.00
2019-05-18T04:48:19.886Z,260.00
2019-05-18T04:49:19.861Z,264.00
2019-05-18T04:50:19.840Z,272.00
2019-05-18T04:51:19.842Z,272.00
2019-05-18T04:52:19.818Z,280.00
2019-05-18T04:53:19.803Z,288.00
2019-05-18T04:54:19.788Z,296.00
2019-05-18T04:55:19.772Z,300.00
2019-05-18T04:56:19.753Z,316.00
2019-05-18T05:04:08.283Z,468.00
2019-05-18T05:05:08.221Z,500.00
2019-05-18T05:32:47.753Z,1168.00
2019-05-18T05:33:47.654Z,1168.00
2019-05-18T05:34:47.620Z,1168.00
2019-05-18T05:35:47.573Z,1172.00
2019-05-18T05:36:47.587Z,1176.00
2019-05-18T05:37:47.538Z,1192.00
2019-05-18T05:38:47.528Z,1224.00
2019-05-18T05:39:47.503Z,1240.00
2019-05-18T05:40:47.495Z,1284.00
2019-05-18T05:41:47.479Z,1408.00
2019-05-18T05:42:47.463Z,1580.00
2019-05-18T05:43:47.446Z,1440.00
2019-05-18T05:44:47.440Z,1428.00
2019-05-18T05:45:47.424Z,1444.00
2019-05-18T05:46:47.405Z,1476.00
2019-05-18T05:47:47.398Z,1596.00
2019-05-18T05:48:47.378Z,2024.00
2019-05-18T05:49:47.366Z,2052.00
2019-05-18T05:50:47.349Z,2212.00
2019-05-18T05:51:47.328Z,1896.00
2019-05-18T05:52:47.331Z,1948.00
2019-05-18T05:53:47.308Z,2512.00
2019-05-18T05:54:47.290Z,2428.00
2019-05-18T05:55:47.279Z,1948.00
2019-05-18T05:56:47.261Z,1740.00
2019-05-18T05:57:47.244Z,1772.00
2019-05-18T05:58:47.228Z,2048.00
2019-05-18T05:59:47.222Z,2020.00
2019-05-18T06:00:47.204Z,2376.00
2019-05-18T06:01:47.193Z,2468.00
2019-05-18T06:02:47.203Z,2136.00
2019-05-18T06:03:47.168Z,2000.00
2019-05-18T06:04:47.151Z,2204.00
2019-05-18T06:05:47.135Z,2460.00
2019-05-18T06:06:47.165Z,2524.00
2019-05-18T06:07:47.105Z,2408.00
2019-05-18T06:08:47.144Z,2544.00
2019-05-18T06:09:47.087Z,2672.00
2019-05-18T06:10:47.062Z,2608.00
2019-05-18T06:11:47.073Z,2684.00
2019-05-18T06:12:47.140Z,2648.00
2019-05-18T06:13:47.024Z,2804.00
2019-05-18T06:14:47.020Z,2524.00
2019-05-18T06:15:47.010Z,2564.00
2019-05-18T06:16:46.998Z,2716.00
2019-05-18T06:17:46.966Z,3008.00
2019-05-18T06:18:46.968Z,2636.00
2019-05-18T06:19:46.948Z,3124.00
2019-05-18T06:20:51.638Z,3176.00
2019-05-18T06:21:46.932Z,3740.00
2019-05-18T06:22:46.914Z,4136.00
2019-05-18T06:23:46.902Z,3780.00
2019-05-18T06:24:46.878Z,4484.00
2019-05-18T06:25:46.868Z,4568.00
2019-05-18T06:26:46.851Z,4580.00
2019-05-18T06:27:46.860Z,4480.00
2019-05-18T06:28:46.846Z,3812.00
2019-05-18T06:29:46.956Z,4560.00
2019-05-18T06:30:46.811Z,4748.00
2019-05-18T06:31:46.793Z,4636.00
2019-05-18T06:32:47.080Z,4716.00
2019-05-18T06:33:46.929Z,4616.00
2019-05-18T06:34:46.756Z,4564.00
2019-05-18T06:35:46.737Z,4800.00
2019-05-18T06:36:46.721Z,4732.00
2019-05-18T06:37:46.711Z,4712.00
2019-05-18T06:38:46.700Z,4776.00
2019-05-18T06:39:46.686Z,4836.00
2019-05-18T06:40:46.698Z,4888.00
2019-05-18T06:41:46.661Z,4944.00
2019-05-18T06:42:46.657Z,4968.00
2019-05-18T06:43:46.638Z,4984.00
2019-05-18T06:44:46.624Z,5000.00
2019-05-18T06:45:46.628Z,4972.00
2019-05-18T06:46:46.610Z,4856.00
2019-05-18T06:47:48.499Z,4764.00
2019-05-18T06:48:46.606Z,4788.00
2019-05-18T06:49:46.568Z,4904.00
2019-05-18T06:50:46.564Z,4764.00
2019-05-18T06:51:46.550Z,4836.00
2019-05-18T06:52:46.559Z,4760.00
2019-05-18T06:53:46.533Z,5124.00
2019-05-18T06:54:46.513Z,5044.00
2019-05-18T06:55:46.504Z,5008.00
2019-05-18T06:56:46.503Z,5284.00
2019-05-18T06:57:46.503Z,5352.00
2019-05-18T06:58:46.502Z,5484.00
2019-05-18T06:59:46.488Z,5424.00
2019-05-18T07:00:46.780Z,5496.00
2019-05-18T07:01:46.448Z,5612.00
2019-05-18T07:02:46.437Z,5488.00
2019-05-18T07:03:46.420Z,5456.00
2019-05-18T07:04:46.450Z,5668.00
2019-05-18T07:05:46.410Z,5704.00
2019-05-18T07:06:46.392Z,5988.00
2019-05-18T07:07:46.412Z,6144.00
2019-05-18T07:08:46.378Z,5984.00
2019-05-18T07:09:46.367Z,5584.00
2019-05-18T07:10:46.452Z,6012.00
2019-05-18T07:11:46.358Z,4604.00
2019-05-18T07:12:46.334Z,4116.00
2019-05-18T07:13:46.356Z,4544.00
2019-05-18T07:14:46.317Z,5036.00
2019-05-18T07:15:46.314Z,2908.00
2019-05-18T07:16:46.327Z,4496.00
2019-05-18T07:17:46.302Z,3376.00
2019-05-18T07:18:46.300Z,2940.00
2019-05-18T07:19:46.307Z,3748.00
2019-05-18T07:20:46.262Z,3588.00
2019-05-18T07:21:46.287Z,5004.00
2019-05-18T07:22:46.248Z,4192.00
2019-05-18T07:23:46.251Z,4404.00
2019-05-18T07:24:46.217Z,3412.00
2019-05-18T07:25:46.236Z,3712.00
2019-05-18T07:26:46.237Z,3728.00
2019-05-18T07:27:46.212Z,2752.00
2019-05-18T07:28:46.185Z,2740.00
2019-05-18T07:29:46.179Z,2704.00
2019-05-18T07:30:46.167Z,2460.00
2019-05-18T07:31:46.157Z,2516.00
2019-05-18T07:32:46.145Z,2428.00
2019-05-18T07:33:46.153Z,3532.00
2019-05-18T07:34:46.121Z,3484.00
2019-05-18T07:35:46.115Z,3196.00
2019-05-18T07:36:46.109Z,3112.00
2019-05-18T07:37:46.094Z,3040.00
2019-05-18T07:38:46.082Z,3448.00
2019-05-18T07:39:46.076Z,2724.00
2019-05-18T07:40:46.065Z,2884.00
2019-05-18T07:41:47.213Z,3144.00
2019-05-18T07:42:46.049Z,2884.00
2019-05-18T07:43:46.034Z,2924.00
2019-05-18T07:44:46.026Z,2948.00
2019-05-18T07:45:46.022Z,3440.00
2019-05-18T07:46:45.999Z,3916.00
2019-05-18T07:47:46.005Z,2960.00
2019-05-18T07:48:46.047Z,2696.00
2019-05-18T07:49:45.973Z,2608.00
2019-05-18T07:50:45.960Z,2560.00
2019-05-18T07:51:45.994Z,2532.00
2019-05-18T07:52:45.938Z,2516.00
2019-05-18T07:53:45.936Z,2520.00
2019-05-18T07:54:45.924Z,2516.00
2019-05-18T07:55:45.912Z,2532.00
2019-05-18T07:56:45.901Z,2556.00
2019-05-18T07:57:45.888Z,2584.00
2019-05-18T07:58:45.881Z,2640.00
2019-05-18T07:59:45.874Z,2720.00
2019-05-18T08:00:45.885Z,2824.00
2019-05-18T08:01:45.852Z,2912.00
2019-05-18T08:02:45.838Z,3076.00
2019-05-18T08:03:45.835Z,3288.00
2019-05-18T08:04:45.826Z,3344.00
2019-05-18T08:05:45.812Z,3396.00
2019-05-18T08:06:45.798Z,3512.00
2019-05-18T08:07:45.786Z,3604.00
2019-05-18T08:08:45.797Z,3728.00
2019-05-18T08:09:45.761Z,3864.00
2019-05-18T08:10:45.771Z,3992.00
2019-05-18T08:11:45.748Z,4260.00
2019-05-18T08:12:45.741Z,4204.00
2019-05-18T08:13:45.723Z,4228.00
2019-05-18T08:14:45.708Z,4564.00
2019-05-18T08:15:45.700Z,4964.00
2019-05-18T08:16:45.691Z,5260.00
2019-05-18T08:17:45.714Z,5840.00
2019-05-18T08:18:45.672Z,6680.00
2019-05-18T08:19:46.633Z,6928.00
2019-05-18T08:20:45.673Z,7140.00
2019-05-18T08:21:53.289Z,9504.00
2019-05-18T08:22:45.628Z,9936.00
2019-05-18T08:23:45.636Z,9076.00
2019-05-18T08:24:45.612Z,9400.00
2019-05-18T08:25:45.603Z,9192.00
2019-05-18T08:26:45.597Z,9192.00
2019-05-18T08:27:45.587Z,8996.00
2019-05-18T08:28:45.583Z,8820.00
2019-05-18T08:29:45.601Z,8744.00
2019-05-18T08:30:45.570Z,8656.00
2019-05-18T08:31:45.552Z,8528.00
2019-05-18T08:32:45.545Z,8376.00
2019-05-18T08:33:45.544Z,8324.00
2019-05-18T08:34:45.532Z,8216.00
2019-05-18T08:35:45.537Z,8012.00
2019-05-18T08:36:45.528Z,7992.00
2019-05-18T08:37:45.522Z,7912.00
2019-05-18T08:38:45.515Z,7908.00
2019-05-18T08:39:45.545Z,7724.00
2019-05-18T08:40:45.501Z,7836.00
2019-05-18T08:41:48.593Z,7988.00
2019-05-18T08:42:45.563Z,8028.00
2019-05-18T08:43:45.484Z,8072.00
2019-05-18T08:44:45.485Z,8108.00
2019-05-18T08:45:45.479Z,8220.00
2019-05-18T08:46:45.484Z,7612.00
2019-05-18T08:47:45.474Z,7504.00
2019-05-18T08:48:45.468Z,8412.00
2019-05-18T08:49:45.468Z,8348.00
2019-05-18T08:50:45.467Z,8344.00
2019-05-18T08:51:45.457Z,8460.00
2019-05-18T08:52:45.445Z,8412.00
2019-05-18T08:53:45.441Z,8040.00
2019-05-18T08:54:45.443Z,8456.00
2019-05-18T08:55:45.449Z,8540.00
2019-05-18T08:56:45.433Z,8028.00
2019-05-18T08:57:45.428Z,8152.00
2019-05-18T08:58:45.447Z,6908.00
2019-05-18T08:59:45.439Z,7984.00
2019-05-18T09:00:45.425Z,5884.00
2019-05-18T09:01:45.419Z,5952.00
2019-05-18T09:02:45.422Z,6752.00
2019-05-18T09:03:45.410Z,6068.00
2019-05-18T09:04:45.421Z,5472.00
2019-05-18T09:05:45.414Z,8908.00
2019-05-18T09:06:45.401Z,9348.00
2019-05-18T09:07:45.397Z,9728.00
2019-05-18T09:08:45.394Z,9660.00
2019-05-18T09:09:45.388Z,9648.00
2019-05-18T09:10:45.384Z,9624.00
2019-05-18T09:11:45.387Z,9128.00
2019-05-18T09:12:45.390Z,8792.00
2019-05-18T09:13:45.375Z,9740.00
2019-05-18T09:14:45.387Z,8888.00
2019-05-18T09:15:45.374Z,8416.00
2019-05-18T09:16:45.369Z,6752.00
2019-05-18T09:17:45.363Z,7784.00
2019-05-18T09:18:45.362Z,9232.00
2019-05-18T09:19:45.376Z,7068.00
2019-05-18T09:20:45.357Z,6352.00
2019-05-18T09:21:45.360Z,6156.00
2019-05-18T09:22:45.352Z,5660.00
2019-05-18T09:23:45.367Z,7112.00
2019-05-18T09:24:45.359Z,9460.00
2019-05-18T09:25:45.345Z,5024.00
2019-05-18T09:26:45.341Z,3680.00
2019-05-18T09:27:45.354Z,3920.00
2019-05-18T09:28:45.336Z,5908.00
2019-05-18T09:29:45.344Z,3828.00
2019-05-18T09:30:45.337Z,3856.00
2019-05-18T09:31:45.334Z,5596.00
2019-05-18T09:32:45.333Z,4000.00
2019-05-18T09:33:45.318Z,4004.00
2019-05-18T09:34:45.324Z,4168.00
2019-05-18T09:35:45.333Z,4372.00
2019-05-18T09:36:45.316Z,4644.00
2019-05-18T09:37:45.311Z,5028.00
2019-05-18T09:38:45.317Z,4892.00
2019-05-18T09:39:45.308Z,4592.00
2019-05-18T09:40:45.299Z,4360.00
2019-05-18T09:41:45.295Z,4396.00
2019-05-18T09:42:45.292Z,8928.00
2019-05-18T09:43:45.282Z,7064.00
2019-05-18T09:44:45.302Z,6032.00
2019-05-18T09:45:45.276Z,4720.00
2019-05-18T09:46:45.276Z,4520.00
2019-05-18T09:47:45.282Z,4412.00
2019-05-18T09:48:45.267Z,4392.00
2019-05-18T09:49:45.262Z,4476.00
2019-05-18T09:50:45.251Z,4464.00
2019-05-18T09:51:45.268Z,4468.00
2019-05-18T09:52:46.390Z,5300.00
2019-05-18T09:53:51.549Z,4848.00
2019-05-18T09:54:45.265Z,7048.00
2019-05-18T09:55:45.234Z,4856.00
2019-05-18T09:56:45.228Z,6520.00
2019-05-18T09:57:45.247Z,5304.00
2019-05-18T09:58:45.215Z,6636.00
2019-05-18T09:59:45.239Z,9176.00
2019-05-18T10:00:45.204Z,8104.00
2019-05-18T10:01:45.237Z,4440.00
2019-05-18T10:02:45.205Z,7496.00
2019-05-18T10:03:45.214Z,6736.00
2019-05-18T10:04:45.191Z,9120.00
2019-05-18T10:05:45.192Z,7996.00
2019-05-18T10:06:45.184Z,9064.00
2019-05-18T10:07:45.179Z,8664.00
2019-05-18T10:08:45.182Z,8708.00
2019-05-18T10:09:45.174Z,8544.00
2019-05-18T10:10:45.174Z,8508.00
2019-05-18T10:11:45.170Z,8516.00
2019-05-18T10:12:45.165Z,8592.00
2019-05-18T10:13:45.159Z,8548.00
2019-05-18T10:14:45.162Z,8496.00
2019-05-18T10:15:45.148Z,8488.00
2019-05-18T10:16:45.144Z,8484.00
2019-05-18T10:17:45.145Z,8484.00
2019-05-18T10:18:45.152Z,8444.00
2019-05-18T10:19:45.137Z,8300.00
2019-05-18T10:20:45.222Z,8196.00
2019-05-18T10:21:45.160Z,8380.00
2019-05-18T10:22:53.834Z,8224.00
2019-05-18T10:23:45.125Z,7876.00
2019-05-18T10:24:45.137Z,7992.00
2019-05-18T10:25:45.122Z,8228.00
2019-05-18T10:26:45.123Z,8360.00
2019-05-18T10:27:45.121Z,8384.00
2019-05-18T10:28:45.440Z,8364.00
2019-05-18T10:29:46.759Z,8336.00
2019-05-18T10:30:45.114Z,8392.00
2019-05-18T10:31:45.111Z,8332.00
2019-05-18T10:32:45.123Z,8344.00
2019-05-18T10:33:45.123Z,8208.00
2019-05-18T10:34:45.119Z,8396.00
2019-05-18T10:35:45.113Z,8392.00
2019-05-18T10:36:45.114Z,8456.00
2019-05-18T10:37:45.124Z,8388.00
2019-05-18T10:38:45.154Z,8348.00
2019-05-18T10:39:45.113Z,8296.00
2019-05-18T10:40:45.374Z,8344.00
2019-05-18T10:41:45.111Z,8336.00
2019-05-18T10:42:45.112Z,8428.00
2019-05-18T10:43:46.979Z,8432.00
2019-05-18T10:44:45.104Z,8400.00
2019-05-18T10:45:45.468Z,8512.00
2019-05-18T10:46:45.131Z,8492.00
2019-05-18T10:47:45.117Z,8548.00
2019-05-18T10:48:45.105Z,8664.00
2019-05-18T10:49:45.172Z,8708.00
2019-05-18T10:50:45.105Z,8724.00
2019-05-18T10:51:45.107Z,8688.00
2019-05-18T10:52:45.108Z,8652.00
2019-05-18T10:53:45.117Z,8624.00
2019-05-18T10:54:45.107Z,8592.00
2019-05-18T10:55:45.123Z,8548.00
2019-05-18T10:56:45.113Z,8640.00
2019-05-18T10:57:45.105Z,8692.00
2019-05-18T10:58:45.103Z,8744.00
2019-05-18T10:59:45.154Z,8696.00
2019-05-18T11:00:45.117Z,8708.00
2019-05-18T11:01:45.110Z,8728.00
2019-05-18T11:02:45.123Z,8828.00
2019-05-18T11:03:45.118Z,8876.00
2019-05-18T11:04:45.106Z,8836.00
2019-05-18T11:05:45.112Z,8824.00
2019-05-18T11:06:45.153Z,8928.00
2019-05-18T11:07:45.113Z,8984.00
2019-05-18T11:08:45.114Z,8984.00
2019-05-18T11:09:45.116Z,8844.00
2019-05-18T11:10:45.113Z,8916.00
2019-05-18T11:11:45.114Z,8948.00
2019-05-18T11:12:45.122Z,9024.00
2019-05-18T11:13:45.111Z,8984.00
2019-05-18T11:14:45.135Z,9084.00
2019-05-18T11:15:45.121Z,9288.00
2019-05-18T11:16:45.130Z,9200.00
2019-05-18T11:17:45.124Z,9292.00
2019-05-18T11:18:45.129Z,9424.00
2019-05-18T11:19:45.134Z,9452.00
2019-05-18T11:20:45.129Z,9380.00
2019-05-18T11:21:45.126Z,9392.00
2019-05-18T11:22:45.133Z,9388.00
2019-05-18T11:23:47.987Z,9380.00
2019-05-18T11:24:45.150Z,7988.00
2019-05-18T11:25:45.138Z,9440.00
2019-05-18T11:26:45.129Z,9472.00
2019-05-18T11:27:45.137Z,9404.00
2019-05-18T11:28:45.149Z,9428.00
2019-05-18T11:29:45.139Z,9396.00
2019-05-18T11:30:45.136Z,9408.00
2019-05-18T11:31:45.154Z,9336.00
2019-05-18T11:32:45.162Z,9428.00
2019-05-18T11:33:45.156Z,9604.00
2019-05-18T11:34:45.143Z,9644.00
2019-05-18T11:35:45.172Z,9840.00
2019-05-18T11:36:45.151Z,10044.00
2019-05-18T11:37:45.160Z,9452.00
2019-05-18T11:38:45.198Z,9964.00
2019-05-18T11:39:45.159Z,10112.00
2019-05-18T11:40:45.157Z,10008.00
2019-05-18T11:41:45.160Z,10012.00
2019-05-18T11:42:45.163Z,10100.00
2019-05-18T11:43:45.170Z,10308.00
2019-05-18T11:44:45.189Z,10520.00
2019-05-18T11:45:45.172Z,10644.00
2019-05-18T11:46:45.179Z,10700.00
2019-05-18T11:47:45.190Z,10752.00
2019-05-18T11:48:45.201Z,10840.00
2019-05-18T11:49:45.198Z,11144.00
2019-05-18T11:50:45.191Z,11196.00
2019-05-18T11:51:45.195Z,11372.00
2019-05-18T11:52:45.203Z,11608.00
2019-05-18T11:53:57.504Z,11712.00
2019-05-18T11:54:45.201Z,11880.00
2019-05-18T11:55:45.216Z,11892.00
2019-05-18T11:56:45.220Z,12004.00
2019-05-18T11:57:45.213Z,12120.00
2019-05-18T11:58:45.225Z,12444.00
2019-05-18T11:59:45.260Z,12484.00
2019-05-18T12:00:45.288Z,12860.00
2019-05-18T12:01:45.230Z,13008.00
2019-05-18T12:02:45.305Z,12556.00
2019-05-18T12:03:45.236Z,12656.00
2019-05-18T12:04:48.572Z,12872.00
2019-05-18T12:05:45.245Z,12952.00
2019-05-18T12:06:45.249Z,12956.00
2019-05-18T12:07:45.251Z,13088.00
2019-05-18T12:08:45.255Z,13148.00
2019-05-18T12:09:45.253Z,13440.00
2019-05-18T12:10:45.266Z,13156.00
2019-05-18T12:11:45.266Z,13148.00
2019-05-18T12:12:45.269Z,13564.00
2019-05-18T12:13:45.284Z,4540.00
2019-05-18T12:14:45.286Z,6656.00
2019-05-18T12:15:45.283Z,9292.00
2019-05-18T12:16:45.302Z,8780.00
2019-05-18T12:17:45.293Z,5424.00
2019-05-18T12:18:45.307Z,13444.00
2019-05-18T12:19:45.299Z,13812.00
2019-05-18T12:20:45.314Z,14056.00
2019-05-18T12:21:45.302Z,14296.00
2019-05-18T12:22:45.314Z,14436.00
2019-05-18T12:23:45.315Z,14292.00
2019-05-18T12:24:45.326Z,14684.00
2019-05-18T12:25:45.311Z,14988.00
2019-05-18T12:26:45.315Z,15024.00
2019-05-18T12:27:45.335Z,15168.00
2019-05-18T12:28:45.335Z,15776.00
2019-05-18T12:29:45.338Z,15840.00
2019-05-18T12:30:45.343Z,16096.00
2019-05-18T12:31:45.337Z,16160.00
2019-05-18T12:32:45.369Z,16224.00
2019-05-18T12:33:45.352Z,15904.00
2019-05-18T12:34:45.571Z,15776.00
2019-05-18T12:35:45.358Z,15744.00
2019-05-18T12:36:45.361Z,15744.00
2019-05-18T12:37:45.376Z,15680.00
2019-05-18T12:38:45.377Z,16064.00
2019-05-18T12:39:45.382Z,16064.00
2019-05-18T12:40:45.385Z,15840.00
2019-05-18T12:41:45.389Z,15712.00
2019-05-18T12:42:45.401Z,16416.00
2019-05-18T12:43:45.396Z,16992.00
2019-05-18T12:44:45.403Z,16608.00
2019-05-18T12:45:45.420Z,16480.00
2019-05-18T12:46:45.436Z,16096.00
2019-05-18T12:47:45.424Z,15872.00
2019-05-18T12:48:45.426Z,15552.00
2019-05-18T12:49:45.436Z,14980.00
2019-05-18T12:50:45.439Z,13352.00
2019-05-18T12:51:45.446Z,3328.00
2019-05-18T12:52:45.454Z,12368.00
2019-05-18T12:53:45.459Z,14480.00
2019-05-18T12:54:46.953Z,14320.00
2019-05-18T12:55:45.478Z,14644.00
2019-05-18T12:56:45.479Z,3168.00
2019-05-18T12:57:45.483Z,2356.00
2019-05-18T12:58:45.487Z,2240.00
2019-05-18T12:59:45.500Z,2104.00
2019-05-18T13:00:45.503Z,2040.00
2019-05-18T13:01:45.495Z,1972.00
2019-05-18T13:02:45.497Z,1944.00
2019-05-18T13:03:45.500Z,1920.00
2019-05-18T13:04:45.493Z,2000.00
2019-05-18T13:05:45.498Z,11344.00
2019-05-18T13:06:45.509Z,2280.00